sensor_id;sensor_type;location;lat;lon;timestamp;P1;durP1;ratioP1;P2;durP2;ratioP2
27833;SDS011;15200;50.570;7.244;2023-06-04T00:01:09;3.67;;;1.62;;
27833;SDS011;15200;50.570;7.244;2023-06-04T00:03:36;4.00;;;2.02;;
27833;SDS011;15200;50.570;7.244;2023-06-04T00:06:04;2.02;;;1.67;;
27833;SDS011;15200;50.570;7.244;2023-06-04T00:08:31;3.02;;;2.00;;
27833;SDS011;15200;50.570;7.244;2023-06-04T00:10:58;3.02;;;1.67;;
27833;SDS011;15200;50.570;7.244;2023-06-04T00:13:25;2.52;;;1.87;;
27833;SDS011;15200;50.570;7.244;2023-06-04T00:15:53;4.15;;;2.05;;
27833;SDS011;15200;50.570;7.244;2023-06-04T00:18:20;3.08;;;1.95;;
27833;SDS011;15200;50.570;7.244;2023-06-04T00:20:47;2.50;;;1.92;;
27833;SDS011;15200;50.570;7.244;2023-06-04T00:23:15;5.12;;;2.30;;
27833;SDS011;15200;50.570;7.244;2023-06-04T00:25:42;3.77;;;1.82;;
27833;SDS011;15200;50.570;7.244;2023-06-04T00:28:10;4.20;;;2.02;;
27833;SDS011;15200;50.570;7.244;2023-06-04T00:30:37;5.47;;;1.72;;
27833;SDS011;15200;50.570;7.244;2023-06-04T00:33:04;2.40;;;1.95;;
27833;SDS011;15200;50.570;7.244;2023-06-04T00:35:32;3.80;;;1.70;;
27833;SDS011;15200;50.570;7.244;2023-06-04T00:37:59;1.98;;;1.45;;
27833;SDS011;15200;50.570;7.244;2023-06-04T00:40:26;3.02;;;2.00;;
27833;SDS011;15200;50.570;7.244;2023-06-04T00:42:54;3.33;;;1.45;;
27833;SDS011;15200;50.570;7.244;2023-06-04T00:45:22;3.98;;;2.17;;
27833;SDS011;15200;50.570;7.244;2023-06-04T00:47:51;3.60;;;1.72;;
27833;SDS011;15200;50.570;7.244;2023-06-04T00:50:19;2.85;;;2.10;;
27833;SDS011;15200;50.570;7.244;2023-06-04T00:52:48;6.65;;;1.80;;
27833;SDS011;15200;50.570;7.244;2023-06-04T00:55:15;3.67;;;1.98;;
27833;SDS011;15200;50.570;7.244;2023-06-04T00:57:44;2.58;;;1.55;;
27833;SDS011;15200;50.570;7.244;2023-06-04T01:00:12;6.92;;;1.82;;
27833;SDS011;15200;50.570;7.244;2023-06-04T01:02:40;3.67;;;1.77;;
27833;SDS011;15200;50.570;7.244;2023-06-04T01:07:55;2.20;;;1.40;;
27833;SDS011;15200;50.570;7.244;2023-06-04T01:10:24;2.22;;;1.62;;
27833;SDS011;15200;50.570;7.244;2023-06-04T01:12:51;2.42;;;1.95;;
27833;SDS011;15200;50.570;7.244;2023-06-04T01:15:19;2.77;;;1.90;;
27833;SDS011;15200;50.570;7.244;2023-06-04T01:17:48;5.17;;;2.05;;
27833;SDS011;15200;50.570;7.244;2023-06-04T01:25:37;4.80;;;2.33;;
27833;SDS011;15200;50.570;7.244;2023-06-04T01:28:05;3.35;;;2.00;;
27833;SDS011;15200;50.570;7.244;2023-06-04T01:30:34;3.98;;;2.10;;
27833;SDS011;15200;50.570;7.244;2023-06-04T01:33:03;4.62;;;1.87;;
27833;SDS011;15200;50.570;7.244;2023-06-04T01:35:30;4.28;;;2.05;;
27833;SDS011;15200;50.570;7.244;2023-06-04T01:37:57;3.65;;;1.82;;
27833;SDS011;15200;50.570;7.244;2023-06-04T01:40:25;2.37;;;1.90;;
27833;SDS011;15200;50.570;7.244;2023-06-04T01:42:52;2.75;;;1.85;;
27833;SDS011;15200;50.570;7.244;2023-06-04T01:45:20;2.60;;;2.00;;
27833;SDS011;15200;50.570;7.244;2023-06-04T01:47:48;1.87;;;1.70;;
27833;SDS011;15200;50.570;7.244;2023-06-04T01:50:15;2.17;;;1.55;;
27833;SDS011;15200;50.570;7.244;2023-06-04T01:52:43;5.03;;;2.10;;
27833;SDS011;15200;50.570;7.244;2023-06-04T01:55:11;3.92;;;1.95;;
27833;SDS011;15200;50.570;7.244;2023-06-04T01:57:39;1.90;;;1.60;;
27833;SDS011;15200;50.570;7.244;2023-06-04T02:00:07;2.10;;;1.65;;
27833;SDS011;15200;50.570;7.244;2023-06-04T02:02:38;2.83;;;1.75;;
27833;SDS011;15200;50.570;7.244;2023-06-04T02:05:07;6.35;;;2.10;;
27833;SDS011;15200;50.570;7.244;2023-06-04T02:07:35;3.55;;;1.80;;
27833;SDS011;15200;50.570;7.244;2023-06-04T02:10:10;5.37;;;2.30;;
27833;SDS011;15200;50.570;7.244;2023-06-04T02:12:35;3.15;;;1.67;;
27833;SDS011;15200;50.570;7.244;2023-06-04T02:15:02;4.15;;;1.60;;
27833;SDS011;15200;50.570;7.244;2023-06-04T02:17:30;2.87;;;2.00;;
27833;SDS011;15200;50.570;7.244;2023-06-04T02:19:58;3.52;;;2.42;;
27833;SDS011;15200;50.570;7.244;2023-06-04T02:22:27;4.78;;;1.70;;
27833;SDS011;15200;50.570;7.244;2023-06-04T02:24:54;4.42;;;2.00;;
27833;SDS011;15200;50.570;7.244;2023-06-04T02:27:21;2.77;;;1.70;;
27833;SDS011;15200;50.570;7.244;2023-06-04T02:29:48;3.10;;;1.60;;
27833;SDS011;15200;50.570;7.244;2023-06-04T02:32:16;2.87;;;1.65;;
27833;SDS011;15200;50.570;7.244;2023-06-04T02:34:43;1.80;;;1.52;;
27833;SDS011;15200;50.570;7.244;2023-06-04T02:37:10;3.65;;;1.70;;
27833;SDS011;15200;50.570;7.244;2023-06-04T02:39:38;4.22;;;1.95;;
27833;SDS011;15200;50.570;7.244;2023-06-04T02:42:05;2.95;;;1.60;;
27833;SDS011;15200;50.570;7.244;2023-06-04T02:44:33;4.83;;;1.72;;
27833;SDS011;15200;50.570;7.244;2023-06-04T02:47:00;5.87;;;2.17;;
27833;SDS011;15200;50.570;7.244;2023-06-04T02:49:27;2.92;;;2.05;;
27833;SDS011;15200;50.570;7.244;2023-06-04T02:51:54;2.15;;;1.60;;
27833;SDS011;15200;50.570;7.244;2023-06-04T02:54:22;2.77;;;1.87;;
27833;SDS011;15200;50.570;7.244;2023-06-04T02:56:49;2.83;;;1.60;;
27833;SDS011;15200;50.570;7.244;2023-06-04T02:59:17;2.65;;;1.40;;
27833;SDS011;15200;50.570;7.244;2023-06-04T03:01:45;2.95;;;1.60;;
27833;SDS011;15200;50.570;7.244;2023-06-04T03:04:12;3.50;;;1.90;;
27833;SDS011;15200;50.570;7.244;2023-06-04T03:06:41;3.73;;;1.80;;
27833;SDS011;15200;50.570;7.244;2023-06-04T03:09:12;2.00;;;1.72;;
27833;SDS011;15200;50.570;7.244;2023-06-04T03:11:39;3.25;;;1.85;;
27833;SDS011;15200;50.570;7.244;2023-06-04T03:14:07;2.10;;;1.60;;
27833;SDS011;15200;50.570;7.244;2023-06-04T03:16:34;3.70;;;1.50;;
27833;SDS011;15200;50.570;7.244;2023-06-04T03:19:03;3.70;;;2.35;;
27833;SDS011;15200;50.570;7.244;2023-06-04T03:21:30;2.30;;;1.52;;
27833;SDS011;15200;50.570;7.244;2023-06-04T03:23:58;2.47;;;1.40;;
27833;SDS011;15200;50.570;7.244;2023-06-04T03:26:25;2.70;;;1.80;;
27833;SDS011;15200;50.570;7.244;2023-06-04T03:28:52;2.00;;;1.40;;
27833;SDS011;15200;50.570;7.244;2023-06-04T03:31:20;5.78;;;2.20;;
27833;SDS011;15200;50.570;7.244;2023-06-04T03:33:47;2.12;;;1.52;;
27833;SDS011;15200;50.570;7.244;2023-06-04T03:36:14;2.97;;;1.57;;
27833;SDS011;15200;50.570;7.244;2023-06-04T03:38:44;2.47;;;1.40;;
27833;SDS011;15200;50.570;7.244;2023-06-04T03:41:11;2.08;;;1.40;;
27833;SDS011;15200;50.570;7.244;2023-06-04T03:43:38;6.35;;;1.62;;
27833;SDS011;15200;50.570;7.244;2023-06-04T03:46:06;4.67;;;1.90;;
27833;SDS011;15200;50.570;7.244;2023-06-04T03:48:33;2.67;;;1.60;;
27833;SDS011;15200;50.570;7.244;2023-06-04T03:51:00;3.30;;;1.50;;
27833;SDS011;15200;50.570;7.244;2023-06-04T03:53:27;4.55;;;1.85;;
27833;SDS011;15200;50.570;7.244;2023-06-04T03:55:55;3.12;;;2.12;;
27833;SDS011;15200;50.570;7.244;2023-06-04T03:58:22;2.85;;;1.70;;
27833;SDS011;15200;50.570;7.244;2023-06-04T04:00:50;5.97;;;1.80;;
27833;SDS011;15200;50.570;7.244;2023-06-04T04:03:18;2.70;;;1.62;;
27833;SDS011;15200;50.570;7.244;2023-06-04T04:05:45;2.40;;;1.70;;
27833;SDS011;15200;50.570;7.244;2023-06-04T04:08:13;3.12;;;2.00;;
27833;SDS011;15200;50.570;7.244;2023-06-04T04:10:42;3.80;;;1.85;;
27833;SDS011;15200;50.570;7.244;2023-06-04T04:13:09;2.75;;;1.72;;
27833;SDS011;15200;50.570;7.244;2023-06-04T04:15:36;2.98;;;1.92;;
27833;SDS011;15200;50.570;7.244;2023-06-04T04:18:04;4.22;;;1.82;;
27833;SDS011;15200;50.570;7.244;2023-06-04T04:20:33;1.90;;;1.60;;
27833;SDS011;15200;50.570;7.244;2023-06-04T04:23:00;2.00;;;1.30;;
27833;SDS011;15200;50.570;7.244;2023-06-04T04:25:27;1.87;;;1.32;;
27833;SDS011;15200;50.570;7.244;2023-06-04T04:27:55;2.85;;;1.90;;
27833;SDS011;15200;50.570;7.244;2023-06-04T04:30:22;3.37;;;1.90;;
27833;SDS011;15200;50.570;7.244;2023-06-04T04:32:50;2.55;;;1.47;;
27833;SDS011;15200;50.570;7.244;2023-06-04T04:35:17;2.20;;;1.60;;
27833;SDS011;15200;50.570;7.244;2023-06-04T04:37:44;2.37;;;1.40;;
27833;SDS011;15200;50.570;7.244;2023-06-04T04:40:12;2.08;;;1.30;;
27833;SDS011;15200;50.570;7.244;2023-06-04T04:42:40;1.47;;;1.22;;
27833;SDS011;15200;50.570;7.244;2023-06-04T04:45:08;1.65;;;1.55;;
27833;SDS011;15200;50.570;7.244;2023-06-04T04:47:37;3.08;;;1.67;;
27833;SDS011;15200;50.570;7.244;2023-06-04T04:50:04;2.47;;;1.55;;
27833;SDS011;15200;50.570;7.244;2023-06-04T04:52:32;4.45;;;1.52;;
27833;SDS011;15200;50.570;7.244;2023-06-04T04:54:59;2.02;;;1.42;;
27833;SDS011;15200;50.570;7.244;2023-06-04T04:57:27;2.83;;;1.40;;
27833;SDS011;15200;50.570;7.244;2023-06-04T04:59:54;3.20;;;1.40;;
27833;SDS011;15200;50.570;7.244;2023-06-04T05:02:21;2.05;;;1.40;;
27833;SDS011;15200;50.570;7.244;2023-06-04T05:04:48;2.92;;;1.50;;
27833;SDS011;15200;50.570;7.244;2023-06-04T05:07:16;4.10;;;1.60;;
27833;SDS011;15200;50.570;7.244;2023-06-04T05:09:43;2.35;;;1.40;;
27833;SDS011;15200;50.570;7.244;2023-06-04T05:12:11;5.53;;;1.75;;
27833;SDS011;15200;50.570;7.244;2023-06-04T05:14:38;4.72;;;1.37;;
27833;SDS011;15200;50.570;7.244;2023-06-04T05:17:06;1.77;;;1.40;;
27833;SDS011;15200;50.570;7.244;2023-06-04T05:19:34;1.40;;;1.30;;
27833;SDS011;15200;50.570;7.244;2023-06-04T05:22:01;1.42;;;1.20;;
27833;SDS011;15200;50.570;7.244;2023-06-04T05:24:30;4.30;;;1.60;;
27833;SDS011;15200;50.570;7.244;2023-06-04T05:26:58;2.02;;;1.62;;
27833;SDS011;15200;50.570;7.244;2023-06-04T05:29:25;5.58;;;1.70;;
27833;SDS011;15200;50.570;7.244;2023-06-04T05:31:52;2.98;;;1.55;;
27833;SDS011;15200;50.570;7.244;2023-06-04T05:34:20;2.47;;;1.40;;
27833;SDS011;15200;50.570;7.244;2023-06-04T05:36:47;2.77;;;1.67;;
27833;SDS011;15200;50.570;7.244;2023-06-04T05:39:15;4.83;;;1.80;;
27833;SDS011;15200;50.570;7.244;2023-06-04T05:41:42;2.30;;;1.70;;
27833;SDS011;15200;50.570;7.244;2023-06-04T05:44:09;3.80;;;1.80;;
27833;SDS011;15200;50.570;7.244;2023-06-04T05:46:37;1.82;;;1.35;;
27833;SDS011;15200;50.570;7.244;2023-06-04T05:49:04;1.72;;;1.45;;
27833;SDS011;15200;50.570;7.244;2023-06-04T05:51:31;3.42;;;1.77;;
27833;SDS011;15200;50.570;7.244;2023-06-04T05:53:59;5.30;;;1.67;;
27833;SDS011;15200;50.570;7.244;2023-06-04T05:56:26;2.27;;;1.62;;
27833;SDS011;15200;50.570;7.244;2023-06-04T05:58:53;2.37;;;1.60;;
27833;SDS011;15200;50.570;7.244;2023-06-04T06:01:21;2.90;;;1.55;;
27833;SDS011;15200;50.570;7.244;2023-06-04T06:03:48;4.67;;;1.67;;
27833;SDS011;15200;50.570;7.244;2023-06-04T06:06:16;1.32;;;1.10;;
27833;SDS011;15200;50.570;7.244;2023-06-04T06:08:44;2.12;;;1.25;;
27833;SDS011;15200;50.570;7.244;2023-06-04T06:11:12;2.83;;;1.77;;
27833;SDS011;15200;50.570;7.244;2023-06-04T06:13:39;3.33;;;1.62;;
27833;SDS011;15200;50.570;7.244;2023-06-04T06:16:06;1.70;;;1.20;;
27833;SDS011;15200;50.570;7.244;2023-06-04T06:18:33;3.15;;;1.50;;
27833;SDS011;15200;50.570;7.244;2023-06-04T06:21:01;1.92;;;1.70;;
27833;SDS011;15200;50.570;7.244;2023-06-04T06:23:28;5.80;;;1.47;;
27833;SDS011;15200;50.570;7.244;2023-06-04T06:25:56;1.92;;;1.47;;
27833;SDS011;15200;50.570;7.244;2023-06-04T06:28:23;2.17;;;1.40;;
27833;SDS011;15200;50.570;7.244;2023-06-04T06:30:51;3.10;;;1.32;;
27833;SDS011;15200;50.570;7.244;2023-06-04T06:33:18;3.45;;;1.30;;
27833;SDS011;15200;50.570;7.244;2023-06-04T06:35:47;2.12;;;1.30;;
27833;SDS011;15200;50.570;7.244;2023-06-04T06:38:15;3.62;;;1.60;;
27833;SDS011;15200;50.570;7.244;2023-06-04T06:40:42;2.62;;;1.50;;
27833;SDS011;15200;50.570;7.244;2023-06-04T06:43:09;2.08;;;1.40;;
27833;SDS011;15200;50.570;7.244;2023-06-04T06:45:37;5.03;;;1.65;;
27833;SDS011;15200;50.570;7.244;2023-06-04T06:48:04;1.30;;;1.20;;
27833;SDS011;15200;50.570;7.244;2023-06-04T06:50:31;7.80;;;1.55;;
27833;SDS011;15200;50.570;7.244;2023-06-04T06:53:01;4.83;;;1.35;;
27833;SDS011;15200;50.570;7.244;2023-06-04T06:55:28;2.83;;;1.20;;
27833;SDS011;15200;50.570;7.244;2023-06-04T06:57:56;2.10;;;1.32;;
27833;SDS011;15200;50.570;7.244;2023-06-04T07:00:23;5.00;;;1.22;;
27833;SDS011;15200;50.570;7.244;2023-06-04T07:02:51;1.57;;;1.10;;
27833;SDS011;15200;50.570;7.244;2023-06-04T07:05:18;2.80;;;1.15;;
27833;SDS011;15200;50.570;7.244;2023-06-04T07:07:45;2.77;;;1.50;;
27833;SDS011;15200;50.570;7.244;2023-06-04T07:10:14;1.60;;;1.17;;
27833;SDS011;15200;50.570;7.244;2023-06-04T07:12:41;3.02;;;1.35;;
27833;SDS011;15200;50.570;7.244;2023-06-04T07:15:08;3.33;;;1.45;;
27833;SDS011;15200;50.570;7.244;2023-06-04T07:17:36;2.55;;;1.50;;
27833;SDS011;15200;50.570;7.244;2023-06-04T07:20:03;4.40;;;1.22;;
27833;SDS011;15200;50.570;7.244;2023-06-04T07:22:32;3.70;;;1.52;;
27833;SDS011;15200;50.570;7.244;2023-06-04T07:24:59;3.10;;;1.60;;
27833;SDS011;15200;50.570;7.244;2023-06-04T07:27:27;2.35;;;1.20;;
27833;SDS011;15200;50.570;7.244;2023-06-04T07:29:54;2.62;;;1.17;;
27833;SDS011;15200;50.570;7.244;2023-06-04T07:32:21;4.45;;;1.50;;
27833;SDS011;15200;50.570;7.244;2023-06-04T07:34:49;2.95;;;1.62;;
27833;SDS011;15200;50.570;7.244;2023-06-04T07:37:16;2.25;;;1.40;;
27833;SDS011;15200;50.570;7.244;2023-06-04T07:39:44;3.20;;;1.05;;
27833;SDS011;15200;50.570;7.244;2023-06-04T07:42:11;2.42;;;1.15;;
27833;SDS011;15200;50.570;7.244;2023-06-04T07:44:38;2.60;;;1.35;;
27833;SDS011;15200;50.570;7.244;2023-06-04T07:47:05;3.25;;;1.20;;
27833;SDS011;15200;50.570;7.244;2023-06-04T07:49:33;3.87;;;1.45;;
27833;SDS011;15200;50.570;7.244;2023-06-04T07:52:00;3.17;;;1.32;;
27833;SDS011;15200;50.570;7.244;2023-06-04T07:54:27;2.98;;;1.35;;
27833;SDS011;15200;50.570;7.244;2023-06-04T07:56:55;7.85;;;1.70;;
27833;SDS011;15200;50.570;7.244;2023-06-04T07:59:23;2.08;;;1.20;;
27833;SDS011;15200;50.570;7.244;2023-06-04T08:01:51;2.62;;;0.85;;
27833;SDS011;15200;50.570;7.244;2023-06-04T08:04:18;3.85;;;1.17;;
27833;SDS011;15200;50.570;7.244;2023-06-04T08:06:46;6.58;;;1.60;;
27833;SDS011;15200;50.570;7.244;2023-06-04T08:09:14;2.72;;;1.30;;
27833;SDS011;15200;50.570;7.244;2023-06-04T08:11:41;2.52;;;1.35;;
27833;SDS011;15200;50.570;7.244;2023-06-04T08:14:10;5.25;;;1.37;;
27833;SDS011;15200;50.570;7.244;2023-06-04T08:16:39;1.75;;;1.17;;
27833;SDS011;15200;50.570;7.244;2023-06-04T08:19:06;2.47;;;1.27;;
27833;SDS011;15200;50.570;7.244;2023-06-04T08:21:35;1.45;;;1.10;;
27833;SDS011;15200;50.570;7.244;2023-06-04T08:24:03;5.30;;;1.12;;
27833;SDS011;15200;50.570;7.244;2023-06-04T08:26:31;2.92;;;1.47;;
27833;SDS011;15200;50.570;7.244;2023-06-04T08:29:01;2.25;;;1.27;;
27833;SDS011;15200;50.570;7.244;2023-06-04T08:31:28;4.65;;;1.55;;
27833;SDS011;15200;50.570;7.244;2023-06-04T08:33:56;2.65;;;1.22;;
27833;SDS011;15200;50.570;7.244;2023-06-04T08:36:24;3.25;;;1.05;;
27833;SDS011;15200;50.570;7.244;2023-06-04T08:38:51;5.25;;;1.20;;
27833;SDS011;15200;50.570;7.244;2023-06-04T08:43:48;4.05;;;1.40;;
27833;SDS011;15200;50.570;7.244;2023-06-04T08:46:15;2.90;;;1.30;;
27833;SDS011;15200;50.570;7.244;2023-06-04T08:48:44;1.67;;;1.10;;
27833;SDS011;15200;50.570;7.244;2023-06-04T08:51:11;2.58;;;1.57;;
27833;SDS011;15200;50.570;7.244;2023-06-04T08:53:40;2.47;;;1.20;;
27833;SDS011;15200;50.570;7.244;2023-06-04T08:56:09;3.80;;;1.40;;
27833;SDS011;15200;50.570;7.244;2023-06-04T08:58:36;1.55;;;1.22;;
27833;SDS011;15200;50.570;7.244;2023-06-04T09:01:03;3.22;;;0.95;;
27833;SDS011;15200;50.570;7.244;2023-06-04T09:03:31;3.45;;;1.50;;
27833;SDS011;15200;50.570;7.244;2023-06-04T09:05:59;2.20;;;1.40;;
27833;SDS011;15200;50.570;7.244;2023-06-04T09:08:27;2.37;;;1.30;;
27833;SDS011;15200;50.570;7.244;2023-06-04T09:10:56;2.37;;;1.37;;
27833;SDS011;15200;50.570;7.244;2023-06-04T09:13:26;3.40;;;1.42;;
27833;SDS011;15200;50.570;7.244;2023-06-04T09:16:02;5.60;;;1.50;;
27833;SDS011;15200;50.570;7.244;2023-06-04T09:37:52;3.17;;;1.30;;
27833;SDS011;15200;50.570;7.244;2023-06-04T09:40:19;6.55;;;1.10;;
27833;SDS011;15200;50.570;7.244;2023-06-04T09:42:48;2.10;;;1.17;;
27833;SDS011;15200;50.570;7.244;2023-06-04T09:45:32;1.85;;;1.10;;
27833;SDS011;15200;50.570;7.244;2023-06-04T09:47:56;4.70;;;1.30;;
27833;SDS011;15200;50.570;7.244;2023-06-04T09:50:27;3.10;;;1.17;;
27833;SDS011;15200;50.570;7.244;2023-06-04T09:52:54;4.25;;;1.47;;
27833;SDS011;15200;50.570;7.244;2023-06-04T09:55:22;4.83;;;1.40;;
27833;SDS011;15200;50.570;7.244;2023-06-04T09:57:50;3.58;;;1.10;;
27833;SDS011;15200;50.570;7.244;2023-06-04T10:00:23;2.83;;;1.30;;
27833;SDS011;15200;50.570;7.244;2023-06-04T10:02:53;2.55;;;1.07;;
27833;SDS011;15200;50.570;7.244;2023-06-04T10:05:19;3.22;;;1.40;;
27833;SDS011;15200;50.570;7.244;2023-06-04T10:07:48;2.05;;;1.05;;
27833;SDS011;15200;50.570;7.244;2023-06-04T10:10:18;3.42;;;1.07;;
27833;SDS011;15200;50.570;7.244;2023-06-04T10:12:47;3.65;;;1.52;;
27833;SDS011;15200;50.570;7.244;2023-06-04T10:15:14;2.42;;;0.98;;
27833;SDS011;15200;50.570;7.244;2023-06-04T10:17:43;1.85;;;1.35;;
27833;SDS011;15200;50.570;7.244;2023-06-04T10:20:10;3.02;;;1.10;;
27833;SDS011;15200;50.570;7.244;2023-06-04T10:22:38;2.52;;;1.40;;
27833;SDS011;15200;50.570;7.244;2023-06-04T10:25:05;2.52;;;1.30;;
27833;SDS011;15200;50.570;7.244;2023-06-04T10:27:33;4.45;;;1.32;;
27833;SDS011;15200;50.570;7.244;2023-06-04T10:30:02;3.00;;;1.45;;
27833;SDS011;15200;50.570;7.244;2023-06-04T10:32:29;2.70;;;1.20;;
27833;SDS011;15200;50.570;7.244;2023-06-04T10:34:57;5.00;;;1.27;;
27833;SDS011;15200;50.570;7.244;2023-06-04T10:37:25;6.53;;;1.50;;
27833;SDS011;15200;50.570;7.244;2023-06-04T10:39:56;1.67;;;1.12;;
27833;SDS011;15200;50.570;7.244;2023-06-04T10:42:24;3.30;;;1.15;;
27833;SDS011;15200;50.570;7.244;2023-06-04T10:44:52;6.12;;;1.20;;
27833;SDS011;15200;50.570;7.244;2023-06-04T10:47:23;2.47;;;1.37;;
27833;SDS011;15200;50.570;7.244;2023-06-04T10:49:51;2.27;;;1.40;;
27833;SDS011;15200;50.570;7.244;2023-06-04T10:52:19;6.97;;;1.47;;
27833;SDS011;15200;50.570;7.244;2023-06-04T10:54:46;3.77;;;1.20;;
27833;SDS011;15200;50.570;7.244;2023-06-04T10:57:16;4.15;;;0.90;;
27833;SDS011;15200;50.570;7.244;2023-06-04T10:59:56;7.17;;;1.15;;
27833;SDS011;15200;50.570;7.244;2023-06-04T11:02:23;1.98;;;0.93;;
27833;SDS011;15200;50.570;7.244;2023-06-04T11:05:03;2.40;;;1.02;;
27833;SDS011;15200;50.570;7.244;2023-06-04T11:07:41;4.25;;;0.90;;
27833;SDS011;15200;50.570;7.244;2023-06-04T11:10:10;2.25;;;1.12;;
27833;SDS011;15200;50.570;7.244;2023-06-04T11:12:41;1.50;;;1.10;;
27833;SDS011;15200;50.570;7.244;2023-06-04T11:15:09;2.58;;;1.10;;
27833;SDS011;15200;50.570;7.244;2023-06-04T11:17:36;1.40;;;1.00;;
27833;SDS011;15200;50.570;7.244;2023-06-04T11:20:04;3.45;;;1.30;;
27833;SDS011;15200;50.570;7.244;2023-06-04T11:22:33;2.70;;;1.10;;
27833;SDS011;15200;50.570;7.244;2023-06-04T11:25:01;2.12;;;1.45;;
27833;SDS011;15200;50.570;7.244;2023-06-04T11:27:29;2.35;;;1.05;;
27833;SDS011;15200;50.570;7.244;2023-06-04T11:29:57;1.57;;;1.25;;
27833;SDS011;15200;50.570;7.244;2023-06-04T11:32:25;3.65;;;1.10;;
27833;SDS011;15200;50.570;7.244;2023-06-04T11:35:01;1.35;;;1.10;;
27833;SDS011;15200;50.570;7.244;2023-06-04T11:37:21;1.90;;;1.10;;
27833;SDS011;15200;50.570;7.244;2023-06-04T11:39:48;2.10;;;1.00;;
27833;SDS011;15200;50.570;7.244;2023-06-04T11:42:15;2.47;;;1.22;;
27833;SDS011;15200;50.570;7.244;2023-06-04T11:44:43;2.98;;;1.00;;
27833;SDS011;15200;50.570;7.244;2023-06-04T11:47:13;2.02;;;1.02;;
27833;SDS011;15200;50.570;7.244;2023-06-04T11:49:41;1.57;;;1.00;;
27833;SDS011;15200;50.570;7.244;2023-06-04T11:52:10;2.52;;;1.30;;
27833;SDS011;15200;50.570;7.244;2023-06-04T11:54:38;4.45;;;1.05;;
27833;SDS011;15200;50.570;7.244;2023-06-04T11:57:06;1.62;;;1.10;;
27833;SDS011;15200;50.570;7.244;2023-06-04T11:59:33;2.35;;;1.20;;
27833;SDS011;15200;50.570;7.244;2023-06-04T12:02:01;3.95;;;1.40;;
27833;SDS011;15200;50.570;7.244;2023-06-04T12:04:29;3.33;;;1.12;;
27833;SDS011;15200;50.570;7.244;2023-06-04T12:06:58;2.10;;;0.93;;
27833;SDS011;15200;50.570;7.244;2023-06-04T12:09:27;1.70;;;1.10;;
27833;SDS011;15200;50.570;7.244;2023-06-04T12:11:58;2.02;;;0.98;;
27833;SDS011;15200;50.570;7.244;2023-06-04T12:14:26;1.42;;;0.90;;
27833;SDS011;15200;50.570;7.244;2023-06-04T12:16:54;1.32;;;0.98;;
27833;SDS011;15200;50.570;7.244;2023-06-04T12:19:22;3.65;;;1.00;;
27833;SDS011;15200;50.570;7.244;2023-06-04T12:22:02;3.05;;;1.02;;
27833;SDS011;15200;50.570;7.244;2023-06-04T12:24:31;1.98;;;1.10;;
27833;SDS011;15200;50.570;7.244;2023-06-04T12:27:06;3.47;;;1.10;;
27833;SDS011;15200;50.570;7.244;2023-06-04T12:29:35;3.25;;;1.20;;
27833;SDS011;15200;50.570;7.244;2023-06-04T12:32:04;2.15;;;1.32;;
27833;SDS011;15200;50.570;7.244;2023-06-04T12:34:34;2.37;;;1.22;;
27833;SDS011;15200;50.570;7.244;2023-06-04T12:37:02;4.30;;;1.27;;
27833;SDS011;15200;50.570;7.244;2023-06-04T12:39:35;1.80;;;1.30;;
27833;SDS011;15200;50.570;7.244;2023-06-04T12:42:06;1.12;;;1.02;;
27833;SDS011;15200;50.570;7.244;2023-06-04T12:44:40;1.35;;;1.00;;
27833;SDS011;15200;50.570;7.244;2023-06-04T12:47:07;4.60;;;1.50;;
27833;SDS011;15200;50.570;7.244;2023-06-04T12:49:35;1.80;;;1.12;;
27833;SDS011;15200;50.570;7.244;2023-06-04T12:52:03;1.72;;;1.27;;
27833;SDS011;15200;50.570;7.244;2023-06-04T12:54:30;1.62;;;1.00;;
27833;SDS011;15200;50.570;7.244;2023-06-04T12:56:57;5.60;;;1.30;;
27833;SDS011;15200;50.570;7.244;2023-06-04T12:59:29;3.87;;;1.30;;
27833;SDS011;15200;50.570;7.244;2023-06-04T13:01:54;1.57;;;1.20;;
27833;SDS011;15200;50.570;7.244;2023-06-04T13:04:22;3.87;;;1.02;;
27833;SDS011;15200;50.570;7.244;2023-06-04T13:06:49;2.15;;;1.40;;
27833;SDS011;15200;50.570;7.244;2023-06-04T13:09:19;1.55;;;1.20;;
27833;SDS011;15200;50.570;7.244;2023-06-04T13:11:46;8.55;;;1.75;;
27833;SDS011;15200;50.570;7.244;2023-06-04T13:14:14;3.58;;;1.40;;
27833;SDS011;15200;50.570;7.244;2023-06-04T13:16:41;3.55;;;1.57;;
27833;SDS011;15200;50.570;7.244;2023-06-04T13:19:09;1.22;;;1.12;;
27833;SDS011;15200;50.570;7.244;2023-06-04T13:21:36;3.00;;;1.20;;
27833;SDS011;15200;50.570;7.244;2023-06-04T13:24:04;2.80;;;1.42;;
27833;SDS011;15200;50.570;7.244;2023-06-04T13:26:31;2.20;;;1.20;;
27833;SDS011;15200;50.570;7.244;2023-06-04T13:28:59;3.80;;;1.50;;
27833;SDS011;15200;50.570;7.244;2023-06-04T13:31:26;1.47;;;1.05;;
27833;SDS011;15200;50.570;7.244;2023-06-04T13:33:53;1.10;;;1.00;;
27833;SDS011;15200;50.570;7.244;2023-06-04T13:36:21;1.90;;;1.15;;
27833;SDS011;15200;50.570;7.244;2023-06-04T13:38:48;3.05;;;1.12;;
27833;SDS011;15200;50.570;7.244;2023-06-04T13:41:17;1.17;;;1.07;;
27833;SDS011;15200;50.570;7.244;2023-06-04T13:43:44;2.98;;;1.10;;
27833;SDS011;15200;50.570;7.244;2023-06-04T13:46:12;1.50;;;1.30;;
27833;SDS011;15200;50.570;7.244;2023-06-04T13:48:39;2.08;;;1.20;;
27833;SDS011;15200;50.570;7.244;2023-06-04T13:51:06;1.42;;;1.32;;
27833;SDS011;15200;50.570;7.244;2023-06-04T13:53:33;1.45;;;1.32;;
27833;SDS011;15200;50.570;7.244;2023-06-04T13:56:01;3.37;;;1.45;;
27833;SDS011;15200;50.570;7.244;2023-06-04T13:58:28;1.87;;;1.32;;
27833;SDS011;15200;50.570;7.244;2023-06-04T14:00:55;3.58;;;1.50;;
27833;SDS011;15200;50.570;7.244;2023-06-04T14:03:23;1.47;;;1.37;;
27833;SDS011;15200;50.570;7.244;2023-06-04T14:05:50;2.58;;;1.40;;
27833;SDS011;15200;50.570;7.244;2023-06-04T14:08:17;3.42;;;1.37;;
27833;SDS011;15200;50.570;7.244;2023-06-04T14:10:45;2.45;;;1.25;;
27833;SDS011;15200;50.570;7.244;2023-06-04T14:13:12;2.62;;;1.60;;
27833;SDS011;15200;50.570;7.244;2023-06-04T14:15:39;3.05;;;1.40;;
27833;SDS011;15200;50.570;7.244;2023-06-04T14:18:06;6.97;;;1.55;;
27833;SDS011;15200;50.570;7.244;2023-06-04T14:20:34;6.70;;;1.45;;
27833;SDS011;15200;50.570;7.244;2023-06-04T14:23:01;1.85;;;1.30;;
27833;SDS011;15200;50.570;7.244;2023-06-04T14:25:29;2.45;;;1.47;;
27833;SDS011;15200;50.570;7.244;2023-06-04T14:27:56;3.00;;;1.37;;
27833;SDS011;15200;50.570;7.244;2023-06-04T14:30:23;1.57;;;1.40;;
27833;SDS011;15200;50.570;7.244;2023-06-04T14:32:50;1.25;;;1.07;;
27833;SDS011;15200;50.570;7.244;2023-06-04T14:35:18;1.82;;;1.40;;
27833;SDS011;15200;50.570;7.244;2023-06-04T14:37:45;4.08;;;1.60;;
27833;SDS011;15200;50.570;7.244;2023-06-04T14:40:12;3.77;;;1.15;;
27833;SDS011;15200;50.570;7.244;2023-06-04T14:42:40;4.05;;;1.30;;
27833;SDS011;15200;50.570;7.244;2023-06-04T14:45:07;3.33;;;1.17;;
27833;SDS011;15200;50.570;7.244;2023-06-04T14:47:35;2.35;;;1.30;;
27833;SDS011;15200;50.570;7.244;2023-06-04T14:50:02;1.75;;;1.45;;
27833;SDS011;15200;50.570;7.244;2023-06-04T14:52:29;8.00;;;1.87;;
27833;SDS011;15200;50.570;7.244;2023-06-04T14:54:57;3.17;;;1.22;;
27833;SDS011;15200;50.570;7.244;2023-06-04T14:57:24;3.12;;;1.40;;
27833;SDS011;15200;50.570;7.244;2023-06-04T14:59:52;3.27;;;1.70;;
27833;SDS011;15200;50.570;7.244;2023-06-04T15:02:19;1.50;;;1.25;;
27833;SDS011;15200;50.570;7.244;2023-06-04T15:04:46;3.52;;;1.50;;
27833;SDS011;15200;50.570;7.244;2023-06-04T15:07:14;2.15;;;1.80;;
27833;SDS011;15200;50.570;7.244;2023-06-04T15:09:41;2.42;;;2.05;;
27833;SDS011;15200;50.570;7.244;2023-06-04T15:12:08;2.47;;;1.50;;
27833;SDS011;15200;50.570;7.244;2023-06-04T15:14:36;2.83;;;1.62;;
27833;SDS011;15200;50.570;7.244;2023-06-04T15:17:03;2.37;;;1.57;;
27833;SDS011;15200;50.570;7.244;2023-06-04T15:19:31;2.77;;;1.80;;
27833;SDS011;15200;50.570;7.244;2023-06-04T15:21:59;3.00;;;1.55;;